sensor_id;sensor_type;location;lat;lon;timestamp;P1;durP1;ratioP1;P2;durP2;ratioP2
6019;SDS011;3038;51.122;6.840;2022-07-06T00:01:25;5.27;;;3.87;;
6019;SDS011;3038;51.122;6.840;2022-07-06T00:03:50;4.87;;;4.37;;
6019;SDS011;3038;51.122;6.840;2022-07-06T00:06:16;4.77;;;4.07;;
6019;SDS011;3038;51.122;6.840;2022-07-06T00:08:42;5.00;;;3.97;;
6019;SDS011;3038;51.122;6.840;2022-07-06T00:11:09;4.43;;;4.03;;
6019;SDS011;3038;51.122;6.840;2022-07-06T00:13:35;3.93;;;3.53;;
6019;SDS011;3038;51.122;6.840;2022-07-06T00:16:01;7.77;;;5.63;;
6019;SDS011;3038;51.122;6.840;2022-07-06T00:18:26;7.30;;;4.17;;
6019;SDS011;3038;51.122;6.840;2022-07-06T00:20:52;5.37;;;4.40;;
6019;SDS011;3038;51.122;6.840;2022-07-06T00:23:17;4.87;;;4.17;;
6019;SDS011;3038;51.122;6.840;2022-07-06T00:25:43;6.73;;;4.43;;
6019;SDS011;3038;51.122;6.840;2022-07-06T00:28:08;5.87;;;4.43;;
6019;SDS011;3038;51.122;6.840;2022-07-06T00:30:34;5.47;;;4.10;;
6019;SDS011;3038;51.122;6.840;2022-07-06T00:32:59;8.37;;;4.70;;
6019;SDS011;3038;51.122;6.840;2022-07-06T00:35:25;4.77;;;4.37;;
6019;SDS011;3038;51.122;6.840;2022-07-06T00:37:51;5.10;;;4.60;;
6019;SDS011;3038;51.122;6.840;2022-07-06T00:40:17;8.57;;;5.00;;
6019;SDS011;3038;51.122;6.840;2022-07-06T00:42:44;5.53;;;4.47;;
6019;SDS011;3038;51.122;6.840;2022-07-06T00:45:11;11.10;;;4.90;;
6019;SDS011;3038;51.122;6.840;2022-07-06T00:47:38;6.90;;;4.73;;
6019;SDS011;3038;51.122;6.840;2022-07-06T00:50:05;6.00;;;5.03;;
6019;SDS011;3038;51.122;6.840;2022-07-06T00:52:56;6.20;;;4.63;;
6019;SDS011;3038;51.122;6.840;2022-07-06T00:55:25;4.53;;;4.07;;
6019;SDS011;3038;51.122;6.840;2022-07-06T00:57:52;5.80;;;4.43;;
6019;SDS011;3038;51.122;6.840;2022-07-06T01:00:18;7.90;;;4.70;;
6019;SDS011;3038;51.122;6.840;2022-07-06T01:02:46;7.70;;;4.50;;
6019;SDS011;3038;51.122;6.840;2022-07-06T01:05:13;5.47;;;4.33;;
6019;SDS011;3038;51.122;6.840;2022-07-06T01:07:43;5.10;;;4.30;;
6019;SDS011;3038;51.122;6.840;2022-07-06T01:10:11;6.37;;;4.80;;
6019;SDS011;3038;51.122;6.840;2022-07-06T01:12:39;6.40;;;4.30;;
6019;SDS011;3038;51.122;6.840;2022-07-06T01:15:06;5.47;;;5.07;;
6019;SDS011;3038;51.122;6.840;2022-07-06T01:17:33;5.00;;;4.53;;
6019;SDS011;3038;51.122;6.840;2022-07-06T01:22:40;5.77;;;5.17;;
6019;SDS011;3038;51.122;6.840;2022-07-06T01:25:06;4.47;;;4.07;;
6019;SDS011;3038;51.122;6.840;2022-07-06T01:27:36;5.87;;;5.37;;
6019;SDS011;3038;51.122;6.840;2022-07-06T01:30:14;7.60;;;4.67;;
6019;SDS011;3038;51.122;6.840;2022-07-06T01:32:41;4.60;;;4.20;;
6019;SDS011;3038;51.122;6.840;2022-07-06T01:35:08;5.97;;;4.27;;
6019;SDS011;3038;51.122;6.840;2022-07-06T01:37:35;7.07;;;4.23;;
6019;SDS011;3038;51.122;6.840;2022-07-06T01:40:02;5.93;;;4.67;;
6019;SDS011;3038;51.122;6.840;2022-07-06T01:42:29;7.10;;;4.67;;
6019;SDS011;3038;51.122;6.840;2022-07-06T01:44:54;6.47;;;5.50;;
6019;SDS011;3038;51.122;6.840;2022-07-06T01:47:20;5.73;;;5.23;;
6019;SDS011;3038;51.122;6.840;2022-07-06T01:49:45;7.27;;;5.80;;
6019;SDS011;3038;51.122;6.840;2022-07-06T01:52:11;5.80;;;4.93;;
6019;SDS011;3038;51.122;6.840;2022-07-06T01:54:36;10.00;;;4.80;;
6019;SDS011;3038;51.122;6.840;2022-07-06T01:57:02;5.20;;;4.70;;
6019;SDS011;3038;51.122;6.840;2022-07-06T01:59:27;7.97;;;4.73;;
6019;SDS011;3038;51.122;6.840;2022-07-06T02:01:53;4.90;;;4.50;;
6019;SDS011;3038;51.122;6.840;2022-07-06T02:04:18;5.90;;;5.30;;
6019;SDS011;3038;51.122;6.840;2022-07-06T02:06:43;4.87;;;4.47;;
6019;SDS011;3038;51.122;6.840;2022-07-06T02:09:09;5.87;;;5.27;;
6019;SDS011;3038;51.122;6.840;2022-07-06T02:11:34;5.67;;;4.70;;
6019;SDS011;3038;51.122;6.840;2022-07-06T02:13:59;5.57;;;4.80;;
6019;SDS011;3038;51.122;6.840;2022-07-06T02:16:25;6.83;;;5.47;;
6019;SDS011;3038;51.122;6.840;2022-07-06T02:18:50;7.03;;;5.97;;
6019;SDS011;3038;51.122;6.840;2022-07-06T02:21:16;7.80;;;6.20;;
6019;SDS011;3038;51.122;6.840;2022-07-06T02:23:41;6.57;;;5.97;;
6019;SDS011;3038;51.122;6.840;2022-07-06T02:26:07;6.70;;;6.00;;
6019;SDS011;3038;51.122;6.840;2022-07-06T02:28:32;6.07;;;5.67;;
6019;SDS011;3038;51.122;6.840;2022-07-06T02:30:57;7.00;;;6.30;;
6019;SDS011;3038;51.122;6.840;2022-07-06T02:33:23;8.37;;;5.67;;
6019;SDS011;3038;51.122;6.840;2022-07-06T02:35:48;6.90;;;6.23;;
6019;SDS011;3038;51.122;6.840;2022-07-06T02:38:14;8.63;;;5.50;;
6019;SDS011;3038;51.122;6.840;2022-07-06T02:40:39;6.50;;;4.93;;
6019;SDS011;3038;51.122;6.840;2022-07-06T02:43:04;6.57;;;5.97;;
6019;SDS011;3038;51.122;6.840;2022-07-06T02:45:30;6.80;;;5.67;;
6019;SDS011;3038;51.122;6.840;2022-07-06T02:47:56;6.43;;;5.03;;
6019;SDS011;3038;51.122;6.840;2022-07-06T02:50:22;6.00;;;5.20;;
6019;SDS011;3038;51.122;6.840;2022-07-06T02:52:48;5.90;;;4.97;;
6019;SDS011;3038;51.122;6.840;2022-07-06T02:55:13;8.60;;;5.10;;
6019;SDS011;3038;51.122;6.840;2022-07-06T02:57:39;6.20;;;5.03;;
6019;SDS011;3038;51.122;6.840;2022-07-06T03:00:04;6.53;;;5.50;;
6019;SDS011;3038;51.122;6.840;2022-07-06T03:02:32;8.00;;;5.93;;
6019;SDS011;3038;51.122;6.840;2022-07-06T03:04:57;6.80;;;5.40;;
6019;SDS011;3038;51.122;6.840;2022-07-06T03:07:23;8.57;;;5.40;;
6019;SDS011;3038;51.122;6.840;2022-07-06T03:09:48;7.77;;;6.07;;
6019;SDS011;3038;51.122;6.840;2022-07-06T03:12:15;5.57;;;4.90;;
6019;SDS011;3038;51.122;6.840;2022-07-06T03:14:41;6.17;;;4.83;;
6019;SDS011;3038;51.122;6.840;2022-07-06T03:17:06;6.40;;;5.37;;
6019;SDS011;3038;51.122;6.840;2022-07-06T03:19:32;7.40;;;5.23;;
6019;SDS011;3038;51.122;6.840;2022-07-06T03:21:57;6.03;;;5.13;;
6019;SDS011;3038;51.122;6.840;2022-07-06T03:24:22;4.70;;;4.30;;
6019;SDS011;3038;51.122;6.840;2022-07-06T03:26:48;6.13;;;5.63;;
6019;SDS011;3038;51.122;6.840;2022-07-06T03:29:13;5.93;;;5.13;;
6019;SDS011;3038;51.122;6.840;2022-07-06T03:31:38;8.70;;;5.20;;
6019;SDS011;3038;51.122;6.840;2022-07-06T03:34:04;5.97;;;5.37;;
6019;SDS011;3038;51.122;6.840;2022-07-06T03:36:29;9.93;;;5.10;;
6019;SDS011;3038;51.122;6.840;2022-07-06T03:38:55;7.50;;;5.20;;
6019;SDS011;3038;51.122;6.840;2022-07-06T03:41:20;10.30;;;5.73;;
6019;SDS011;3038;51.122;6.840;2022-07-06T03:43:45;8.97;;;5.87;;
6019;SDS011;3038;51.122;6.840;2022-07-06T03:46:11;8.47;;;5.83;;
6019;SDS011;3038;51.122;6.840;2022-07-06T03:48:36;7.40;;;5.73;;
6019;SDS011;3038;51.122;6.840;2022-07-06T03:51:01;11.53;;;6.30;;
6019;SDS011;3038;51.122;6.840;2022-07-06T03:53:27;6.70;;;5.83;;
6019;SDS011;3038;51.122;6.840;2022-07-06T03:55:52;7.60;;;6.07;;
6019;SDS011;3038;51.122;6.840;2022-07-06T03:58:44;6.37;;;5.70;;
6019;SDS011;3038;51.122;6.840;2022-07-06T04:01:09;8.37;;;6.20;;
6019;SDS011;3038;51.122;6.840;2022-07-06T04:03:34;6.97;;;5.30;;
6019;SDS011;3038;51.122;6.840;2022-07-06T04:06:00;8.90;;;6.13;;
6019;SDS011;3038;51.122;6.840;2022-07-06T04:08:25;6.30;;;5.70;;
6019;SDS011;3038;51.122;6.840;2022-07-06T04:10:50;9.10;;;5.70;;
6019;SDS011;3038;51.122;6.840;2022-07-06T04:13:16;9.80;;;5.77;;
6019;SDS011;3038;51.122;6.840;2022-07-06T04:15:41;8.83;;;6.70;;
6019;SDS011;3038;51.122;6.840;2022-07-06T04:18:07;7.80;;;5.70;;
6019;SDS011;3038;51.122;6.840;2022-07-06T04:20:32;19.43;;;6.63;;
6019;SDS011;3038;51.122;6.840;2022-07-06T04:22:57;6.73;;;5.10;;
6019;SDS011;3038;51.122;6.840;2022-07-06T04:25:23;8.40;;;7.03;;
6019;SDS011;3038;51.122;6.840;2022-07-06T04:27:49;7.57;;;6.80;;
6019;SDS011;3038;51.122;6.840;2022-07-06T04:30:14;13.73;;;6.50;;
6019;SDS011;3038;51.122;6.840;2022-07-06T04:32:40;9.23;;;6.47;;
6019;SDS011;3038;51.122;6.840;2022-07-06T04:35:05;7.60;;;6.10;;
6019;SDS011;3038;51.122;6.840;2022-07-06T04:37:31;7.83;;;6.10;;
6019;SDS011;3038;51.122;6.840;2022-07-06T04:39:57;6.60;;;6.00;;
6019;SDS011;3038;51.122;6.840;2022-07-06T04:42:23;10.83;;;6.47;;
6019;SDS011;3038;51.122;6.840;2022-07-06T04:44:48;7.93;;;6.50;;
6019;SDS011;3038;51.122;6.840;2022-07-06T04:47:14;8.43;;;6.43;;
6019;SDS011;3038;51.122;6.840;2022-07-06T04:49:39;10.40;;;6.20;;
6019;SDS011;3038;51.122;6.840;2022-07-06T04:52:05;9.27;;;6.83;;
6019;SDS011;3038;51.122;6.840;2022-07-06T04:54:31;8.70;;;6.57;;
6019;SDS011;3038;51.122;6.840;2022-07-06T04:56:57;7.73;;;6.60;;
6019;SDS011;3038;51.122;6.840;2022-07-06T04:59:22;7.20;;;5.93;;
6019;SDS011;3038;51.122;6.840;2022-07-06T05:01:48;8.50;;;5.73;;
6019;SDS011;3038;51.122;6.840;2022-07-06T05:04:13;8.53;;;6.43;;
6019;SDS011;3038;51.122;6.840;2022-07-06T05:06:39;7.60;;;6.57;;
6019;SDS011;3038;51.122;6.840;2022-07-06T05:09:04;9.90;;;5.70;;
6019;SDS011;3038;51.122;6.840;2022-07-06T05:11:30;7.50;;;6.80;;
6019;SDS011;3038;51.122;6.840;2022-07-06T05:13:55;11.50;;;6.70;;
6019;SDS011;3038;51.122;6.840;2022-07-06T05:16:21;7.70;;;6.57;;
6019;SDS011;3038;51.122;6.840;2022-07-06T05:18:46;8.60;;;6.47;;
6019;SDS011;3038;51.122;6.840;2022-07-06T05:21:12;9.10;;;5.80;;
6019;SDS011;3038;51.122;6.840;2022-07-06T05:23:37;8.13;;;7.33;;
6019;SDS011;3038;51.122;6.840;2022-07-06T05:26:03;8.57;;;6.10;;
6019;SDS011;3038;51.122;6.840;2022-07-06T05:28:28;7.13;;;6.50;;
6019;SDS011;3038;51.122;6.840;2022-07-06T05:30:54;7.67;;;5.53;;
6019;SDS011;3038;51.122;6.840;2022-07-06T05:33:19;6.17;;;5.57;;
6019;SDS011;3038;51.122;6.840;2022-07-06T05:35:44;7.07;;;6.00;;
6019;SDS011;3038;51.122;6.840;2022-07-06T05:38:10;5.70;;;4.93;;
6019;SDS011;3038;51.122;6.840;2022-07-06T05:40:35;7.63;;;5.37;;
6019;SDS011;3038;51.122;6.840;2022-07-06T05:43:01;6.50;;;5.90;;
6019;SDS011;3038;51.122;6.840;2022-07-06T05:45:27;7.23;;;6.30;;
6019;SDS011;3038;51.122;6.840;2022-07-06T05:47:52;8.17;;;6.03;;
6019;SDS011;3038;51.122;6.840;2022-07-06T05:50:36;9.70;;;5.17;;
6019;SDS011;3038;51.122;6.840;2022-07-06T05:53:02;6.23;;;5.60;;
6019;SDS011;3038;51.122;6.840;2022-07-06T05:55:29;8.20;;;5.03;;
6019;SDS011;3038;51.122;6.840;2022-07-06T05:57:55;5.37;;;4.87;;
6019;SDS011;3038;51.122;6.840;2022-07-06T06:00:21;7.80;;;5.33;;
6019;SDS011;3038;51.122;6.840;2022-07-06T06:02:47;6.67;;;5.23;;
6019;SDS011;3038;51.122;6.840;2022-07-06T06:05:13;5.30;;;4.80;;
6019;SDS011;3038;51.122;6.840;2022-07-06T06:07:39;4.93;;;4.53;;
6019;SDS011;3038;51.122;6.840;2022-07-06T06:10:06;8.40;;;5.50;;
6019;SDS011;3038;51.122;6.840;2022-07-06T06:12:34;5.90;;;5.03;;
6019;SDS011;3038;51.122;6.840;2022-07-06T06:14:59;11.20;;;4.77;;
6019;SDS011;3038;51.122;6.840;2022-07-06T06:17:25;7.87;;;4.20;;
6019;SDS011;3038;51.122;6.840;2022-07-06T06:19:51;5.90;;;3.60;;
6019;SDS011;3038;51.122;6.840;2022-07-06T06:22:16;9.00;;;4.30;;
6019;SDS011;3038;51.122;6.840;2022-07-06T06:24:42;6.87;;;4.27;;
6019;SDS011;3038;51.122;6.840;2022-07-06T06:27:07;12.13;;;6.93;;
6019;SDS011;3038;51.122;6.840;2022-07-06T06:29:32;4.90;;;2.93;;
6019;SDS011;3038;51.122;6.840;2022-07-06T06:31:58;5.00;;;3.23;;
6019;SDS011;3038;51.122;6.840;2022-07-06T06:34:23;5.53;;;3.90;;
6019;SDS011;3038;51.122;6.840;2022-07-06T06:36:49;5.23;;;3.03;;
6019;SDS011;3038;51.122;6.840;2022-07-06T06:39:14;10.93;;;4.03;;
6019;SDS011;3038;51.122;6.840;2022-07-06T06:41:39;4.77;;;2.60;;
6019;SDS011;3038;51.122;6.840;2022-07-06T06:44:05;3.00;;;2.33;;
6019;SDS011;3038;51.122;6.840;2022-07-06T06:46:30;6.03;;;2.60;;
6019;SDS011;3038;51.122;6.840;2022-07-06T06:48:55;3.23;;;2.70;;
6019;SDS011;3038;51.122;6.840;2022-07-06T06:51:21;3.70;;;2.30;;
6019;SDS011;3038;51.122;6.840;2022-07-06T06:53:47;5.07;;;2.27;;
6019;SDS011;3038;51.122;6.840;2022-07-06T06:56:12;3.37;;;3.07;;
6019;SDS011;3038;51.122;6.840;2022-07-06T06:58:38;6.53;;;2.50;;
6019;SDS011;3038;51.122;6.840;2022-07-06T07:01:03;4.27;;;2.70;;
6019;SDS011;3038;51.122;6.840;2022-07-06T07:03:29;4.57;;;2.20;;
6019;SDS011;3038;51.122;6.840;2022-07-06T07:05:55;3.37;;;2.47;;
6019;SDS011;3038;51.122;6.840;2022-07-06T07:08:21;4.33;;;2.80;;
6019;SDS011;3038;51.122;6.840;2022-07-06T07:10:46;3.90;;;2.50;;
6019;SDS011;3038;51.122;6.840;2022-07-06T07:13:11;5.90;;;2.20;;
6019;SDS011;3038;51.122;6.840;2022-07-06T07:15:37;3.07;;;2.80;;
6019;SDS011;3038;51.122;6.840;2022-07-06T07:18:02;4.80;;;2.07;;
6019;SDS011;3038;51.122;6.840;2022-07-06T07:20:28;3.87;;;2.30;;
6019;SDS011;3038;51.122;6.840;2022-07-06T07:22:54;10.50;;;2.70;;
6019;SDS011;3038;51.122;6.840;2022-07-06T07:25:20;5.07;;;2.40;;
6019;SDS011;3038;51.122;6.840;2022-07-06T07:27:46;5.33;;;2.50;;
6019;SDS011;3038;51.122;6.840;2022-07-06T07:30:11;3.70;;;2.10;;
6019;SDS011;3038;51.122;6.840;2022-07-06T07:32:37;2.70;;;2.20;;
6019;SDS011;3038;51.122;6.840;2022-07-06T07:35:05;3.30;;;2.30;;
6019;SDS011;3038;51.122;6.840;2022-07-06T07:37:31;4.03;;;1.90;;
6019;SDS011;3038;51.122;6.840;2022-07-06T07:39:56;3.07;;;1.67;;
6019;SDS011;3038;51.122;6.840;2022-07-06T07:42:22;3.23;;;1.47;;
6019;SDS011;3038;51.122;6.840;2022-07-06T07:44:47;3.97;;;1.43;;
6019;SDS011;3038;51.122;6.840;2022-07-06T07:47:12;4.60;;;1.70;;
6019;SDS011;3038;51.122;6.840;2022-07-06T07:49:38;3.87;;;1.70;;
6019;SDS011;3038;51.122;6.840;2022-07-06T07:52:03;2.30;;;1.47;;
6019;SDS011;3038;51.122;6.840;2022-07-06T07:54:29;3.13;;;2.67;;
6019;SDS011;3038;51.122;6.840;2022-07-06T07:56:54;2.27;;;1.40;;
6019;SDS011;3038;51.122;6.840;2022-07-06T07:59:19;4.40;;;1.70;;
6019;SDS011;3038;51.122;6.840;2022-07-06T08:01:45;2.77;;;1.80;;
6019;SDS011;3038;51.122;6.840;2022-07-06T08:04:10;4.67;;;1.97;;
6019;SDS011;3038;51.122;6.840;2022-07-06T08:06:35;3.40;;;1.73;;
6019;SDS011;3038;51.122;6.840;2022-07-06T08:09:01;2.83;;;1.83;;
6019;SDS011;3038;51.122;6.840;2022-07-06T08:11:29;4.13;;;1.70;;
6019;SDS011;3038;51.122;6.840;2022-07-06T08:13:54;3.70;;;1.70;;
6019;SDS011;3038;51.122;6.840;2022-07-06T08:16:20;2.77;;;1.43;;
6019;SDS011;3038;51.122;6.840;2022-07-06T08:18:45;3.97;;;1.67;;
6019;SDS011;3038;51.122;6.840;2022-07-06T08:21:11;4.40;;;1.70;;
6019;SDS011;3038;51.122;6.840;2022-07-06T08:23:36;3.80;;;1.33;;
6019;SDS011;3038;51.122;6.840;2022-07-06T08:26:02;3.77;;;1.73;;
6019;SDS011;3038;51.122;6.840;2022-07-06T08:28:28;3.77;;;1.77;;
6019;SDS011;3038;51.122;6.840;2022-07-06T08:30:54;5.63;;;1.73;;
6019;SDS011;3038;51.122;6.840;2022-07-06T08:33:19;2.50;;;1.20;;
6019;SDS011;3038;51.122;6.840;2022-07-06T08:35:45;2.20;;;1.30;;
6019;SDS011;3038;51.122;6.840;2022-07-06T08:38:10;2.70;;;1.13;;
6019;SDS011;3038;51.122;6.840;2022-07-06T08:40:36;5.50;;;1.73;;
6019;SDS011;3038;51.122;6.840;2022-07-06T08:43:04;2.67;;;1.37;;
6019;SDS011;3038;51.122;6.840;2022-07-06T08:45:30;3.80;;;1.77;;
6019;SDS011;3038;51.122;6.840;2022-07-06T08:48:03;1.47;;;1.00;;
6019;SDS011;3038;51.122;6.840;2022-07-06T08:50:30;3.07;;;1.23;;
6019;SDS011;3038;51.122;6.840;2022-07-06T08:52:57;2.77;;;1.50;;
6019;SDS011;3038;51.122;6.840;2022-07-06T08:55:22;6.87;;;2.20;;
6019;SDS011;3038;51.122;6.840;2022-07-06T08:57:49;2.57;;;1.17;;
6019;SDS011;3038;51.122;6.840;2022-07-06T09:00:15;3.87;;;1.30;;
6019;SDS011;3038;51.122;6.840;2022-07-06T12:31:41;2.83;;;1.50;;
6019;SDS011;3038;51.122;6.840;2022-07-06T12:34:16;3.17;;;1.63;;
6019;SDS011;3038;51.122;6.840;2022-07-06T12:36:53;2.00;;;1.50;;
6019;SDS011;3038;51.122;6.840;2022-07-06T12:39:24;2.17;;;1.70;;
6019;SDS011;3038;51.122;6.840;2022-07-06T12:41:51;2.67;;;1.70;;
6019;SDS011;3038;51.122;6.840;2022-07-06T12:44:28;5.53;;;1.47;;
6019;SDS011;3038;51.122;6.840;2022-07-06T12:47:03;4.33;;;1.60;;
6019;SDS011;3038;51.122;6.840;2022-07-06T12:49:34;1.97;;;1.43;;
6019;SDS011;3038;51.122;6.840;2022-07-06T12:52:10;4.17;;;1.77;;
6019;SDS011;3038;51.122;6.840;2022-07-06T12:54:50;2.40;;;1.53;;
6019;SDS011;3038;51.122;6.840;2022-07-06T12:57:19;1.90;;;1.47;;
6019;SDS011;3038;51.122;6.840;2022-07-06T13:07:32;3.77;;;2.10;;
6019;SDS011;3038;51.122;6.840;2022-07-06T13:10:01;3.30;;;1.50;;
6019;SDS011;3038;51.122;6.840;2022-07-06T13:12:29;3.03;;;1.53;;
6019;SDS011;3038;51.122;6.840;2022-07-06T13:14:54;1.63;;;1.53;;
6019;SDS011;3038;51.122;6.840;2022-07-06T13:17:20;2.37;;;1.60;;
6019;SDS011;3038;51.122;6.840;2022-07-06T13:19:46;2.30;;;1.30;;
6019;SDS011;3038;51.122;6.840;2022-07-06T13:22:11;2.07;;;1.40;;
6019;SDS011;3038;51.122;6.840;2022-07-06T13:24:37;3.40;;;1.73;;
6019;SDS011;3038;51.122;6.840;2022-07-06T13:27:02;3.93;;;1.50;;
6019;SDS011;3038;51.122;6.840;2022-07-06T13:29:28;3.23;;;1.30;;
6019;SDS011;3038;51.122;6.840;2022-07-06T13:31:54;3.20;;;1.80;;
6019;SDS011;3038;51.122;6.840;2022-07-06T13:34:19;2.20;;;1.67;;
6019;SDS011;3038;51.122;6.840;2022-07-06T13:36:45;4.10;;;2.13;;
6019;SDS011;3038;51.122;6.840;2022-07-06T13:39:10;2.53;;;2.33;;
6019;SDS011;3038;51.122;6.840;2022-07-06T13:41:36;4.00;;;1.57;;
6019;SDS011;3038;51.122;6.840;2022-07-06T13:44:02;2.10;;;1.40;;
6019;SDS011;3038;51.122;6.840;2022-07-06T13:46:28;2.17;;;1.50;;
6019;SDS011;3038;51.122;6.840;2022-07-06T13:48:55;4.17;;;1.30;;
6019;SDS011;3038;51.122;6.840;2022-07-06T13:51:21;3.03;;;2.17;;
6019;SDS011;3038;51.122;6.840;2022-07-06T13:53:47;3.40;;;1.60;;
6019;SDS011;3038;51.122;6.840;2022-07-06T13:56:13;2.90;;;1.60;;
6019;SDS011;3038;51.122;6.840;2022-07-06T13:58:38;4.03;;;1.53;;
6019;SDS011;3038;51.122;6.840;2022-07-06T14:01:04;3.27;;;1.73;;
6019;SDS011;3038;51.122;6.840;2022-07-06T14:03:30;1.40;;;1.30;;
6019;SDS011;3038;51.122;6.840;2022-07-06T14:05:59;2.80;;;1.40;;
6019;SDS011;3038;51.122;6.840;2022-07-06T14:08:26;3.10;;;1.50;;
6019;SDS011;3038;51.122;6.840;2022-07-06T14:10:53;2.23;;;1.20;;
6019;SDS011;3038;51.122;6.840;2022-07-06T14:13:19;4.03;;;1.10;;
6019;SDS011;3038;51.122;6.840;2022-07-06T14:15:45;2.17;;;1.50;;
6019;SDS011;3038;51.122;6.840;2022-07-06T14:18:11;3.20;;;1.70;;
6019;SDS011;3038;51.122;6.840;2022-07-06T14:20:36;3.73;;;1.70;;
6019;SDS011;3038;51.122;6.840;2022-07-06T14:23:02;1.77;;;1.43;;
6019;SDS011;3038;51.122;6.840;2022-07-06T14:25:27;1.83;;;1.23;;
6019;SDS011;3038;51.122;6.840;2022-07-06T14:27:53;3.00;;;1.60;;
6019;SDS011;3038;51.122;6.840;2022-07-06T14:30:18;4.80;;;1.90;;
6019;SDS011;3038;51.122;6.840;2022-07-06T14:32:43;6.10;;;1.90;;
6019;SDS011;3038;51.122;6.840;2022-07-06T14:35:09;2.70;;;1.70;;
6019;SDS011;3038;51.122;6.840;2022-07-06T14:37:36;3.00;;;1.70;;
6019;SDS011;3038;51.122;6.840;2022-07-06T14:40:01;2.83;;;1.53;;
6019;SDS011;3038;51.122;6.840;2022-07-06T14:42:27;1.70;;;1.40;;
6019;SDS011;3038;51.122;6.840;2022-07-06T14:44:53;3.57;;;1.30;;
6019;SDS011;3038;51.122;6.840;2022-07-06T14:47:19;1.80;;;1.30;;
6019;SDS011;3038;51.122;6.840;2022-07-06T14:49:44;2.20;;;1.20;;
6019;SDS011;3038;51.122;6.840;2022-07-06T14:52:10;1.73;;;1.20;;
6019;SDS011;3038;51.122;6.840;2022-07-06T14:54:35;4.03;;;1.43;;
6019;SDS011;3038;51.122;6.840;2022-07-06T14:57:01;2.40;;;1.40;;
6019;SDS011;3038;51.122;6.840;2022-07-06T14:59:29;5.20;;;1.50;;
6019;SDS011;3038;51.122;6.840;2022-07-06T15:01:54;3.83;;;1.70;;
6019;SDS011;3038;51.122;6.840;2022-07-06T15:04:20;1.30;;;1.00;;
6019;SDS011;3038;51.122;6.840;2022-07-06T15:06:45;3.17;;;1.53;;
6019;SDS011;3038;51.122;6.840;2022-07-06T15:09:11;4.00;;;1.13;;
6019;SDS011;3038;51.122;6.840;2022-07-06T15:11:36;1.60;;;1.33;;
6019;SDS011;3038;51.122;6.840;2022-07-06T15:14:02;2.87;;;1.23;;
6019;SDS011;3038;51.122;6.840;2022-07-06T15:16:27;2.70;;;1.60;;
6019;SDS011;3038;51.122;6.840;2022-07-06T15:18:53;3.87;;;1.23;;
6019;SDS011;3038;51.122;6.840;2022-07-06T15:21:18;1.87;;;1.10;;
6019;SDS011;3038;51.122;6.840;2022-07-06T15:23:44;2.30;;;1.10;;
6019;SDS011;3038;51.122;6.840;2022-07-06T15:26:09;5.13;;;1.20;;
6019;SDS011;3038;51.122;6.840;2022-07-06T15:28:35;1.67;;;1.43;;
6019;SDS011;3038;51.122;6.840;2022-07-06T15:31:00;2.20;;;1.30;;
6019;SDS011;3038;51.122;6.840;2022-07-06T15:33:26;2.80;;;1.50;;
6019;SDS011;3038;51.122;6.840;2022-07-06T15:35:51;2.53;;;1.60;;
6019;SDS011;3038;51.122;6.840;2022-07-06T15:38:17;2.83;;;1.63;;
6019;SDS011;3038;51.122;6.840;2022-07-06T15:40:43;1.60;;;1.40;;
6019;SDS011;3038;51.122;6.840;2022-07-06T15:43:17;1.73;;;1.53;;
6019;SDS011;3038;51.122;6.840;2022-07-06T15:45:42;1.77;;;1.43;;
6019;SDS011;3038;51.122;6.840;2022-07-06T15:48:07;1.57;;;1.47;;
6019;SDS011;3038;51.122;6.840;2022-07-06T15:50:33;2.50;;;1.50;;
6019;SDS011;3038;51.122;6.840;2022-07-06T15:53:00;3.93;;;1.30;;
6019;SDS011;3038;51.122;6.840;2022-07-06T15:55:25;2.63;;;1.67;;
6019;SDS011;3038;51.122;6.840;2022-07-06T15:57:51;2.17;;;1.27;;
6019;SDS011;3038;51.122;6.840;2022-07-06T16:00:17;1.90;;;1.20;;
6019;SDS011;3038;51.122;6.840;2022-07-06T16:02:42;1.53;;;1.43;;
6019;SDS011;3038;51.122;6.840;2022-07-06T16:05:07;3.80;;;1.83;;
6019;SDS011;3038;51.122;6.840;2022-07-06T16:07:33;2.53;;;1.63;;
6019;SDS011;3038;51.122;6.840;2022-07-06T16:09:58;2.53;;;1.90;;
6019;SDS011;3038;51.122;6.840;2022-07-06T16:12:24;2.73;;;2.00;;
6019;SDS011;3038;51.122;6.840;2022-07-06T16:14:50;3.43;;;1.57;;
6019;SDS011;3038;51.122;6.840;2022-07-06T16:17:15;2.20;;;2.00;;
6019;SDS011;3038;51.122;6.840;2022-07-06T16:19:41;2.70;;;2.10;;
6019;SDS011;3038;51.122;6.840;2022-07-06T16:22:06;3.17;;;1.90;;
6019;SDS011;3038;51.122;6.840;2022-07-06T16:24:31;2.50;;;2.30;;
6019;SDS011;3038;51.122;6.840;2022-07-06T16:26:57;3.10;;;2.40;;
6019;SDS011;3038;51.122;6.840;2022-07-06T16:29:22;2.13;;;1.83;;
6019;SDS011;3038;51.122;6.840;2022-07-06T16:31:47;3.50;;;1.90;;
6019;SDS011;3038;51.122;6.840;2022-07-06T16:34:13;2.40;;;2.07;;
6019;SDS011;3038;51.122;6.840;2022-07-06T16:36:38;3.47;;;1.90;;
6019;SDS011;3038;51.122;6.840;2022-07-06T16:39:04;2.07;;;1.87;;
6019;SDS011;3038;51.122;6.840;2022-07-06T16:41:29;2.07;;;1.90;;
6019;SDS011;3038;51.122;6.840;2022-07-06T16:43:54;3.37;;;1.87;;
6019;SDS011;3038;51.122;6.840;2022-07-06T16:46:20;2.80;;;1.63;;
6019;SDS011;3038;51.122;6.840;2022-07-06T16:48:45;2.03;;;1.70;;
6019;SDS011;3038;51.122;6.840;2022-07-06T16:51:10;1.90;;;1.67;;
6019;SDS011;3038;51.122;6.840;2022-07-06T16:53:36;1.90;;;1.80;;
6019;SDS011;3038;51.122;6.840;2022-07-06T16:56:01;3.10;;;2.70;;
6019;SDS011;3038;51.122;6.840;2022-07-06T16:58:27;4.37;;;2.70;;
6019;SDS011;3038;51.122;6.840;2022-07-06T17:00:53;2.43;;;2.20;;
6019;SDS011;3038;51.122;6.840;2022-07-06T17:03:18;2.83;;;2.60;;
6019;SDS011;3038;51.122;6.840;2022-07-06T17:05:44;4.23;;;1.90;;
6019;SDS011;3038;51.122;6.840;2022-07-06T17:08:10;3.97;;;1.70;;
6019;SDS011;3038;51.122;6.840;2022-07-06T17:10:35;1.80;;;1.70;;
6019;SDS011;3038;51.122;6.840;2022-07-06T17:13:01;1.83;;;1.73;;
6019;SDS011;3038;51.122;6.840;2022-07-06T17:15:26;3.20;;;2.00;;
6019;SDS011;3038;51.122;6.840;2022-07-06T17:17:54;1.90;;;1.80;;
6019;SDS011;3038;51.122;6.840;2022-07-06T17:20:19;2.50;;;2.10;;
6019;SDS011;3038;51.122;6.840;2022-07-06T17:22:44;4.53;;;2.60;;
6019;SDS011;3038;51.122;6.840;2022-07-06T17:25:10;3.37;;;2.07;;
6019;SDS011;3038;51.122;6.840;2022-07-06T17:27:35;4.17;;;2.13;;
6019;SDS011;3038;51.122;6.840;2022-07-06T17:30:01;3.07;;;1.67;;
6019;SDS011;3038;51.122;6.840;2022-07-06T17:32:26;2.57;;;1.97;;
6019;SDS011;3038;51.122;6.840;2022-07-06T17:34:51;2.10;;;1.80;;
6019;SDS011;3038;51.122;6.840;2022-07-06T17:37:17;1.93;;;1.83;;
6019;SDS011;3038;51.122;6.840;2022-07-06T17:39:42;2.70;;;1.97;;
6019;SDS011;3038;51.122;6.840;2022-07-06T17:42:08;2.43;;;1.90;;
6019;SDS011;3038;51.122;6.840;2022-07-06T17:44:33;2.57;;;2.10;;
6019;SDS011;3038;51.122;6.840;2022-07-06T17:46:59;7.43;;;2.07;;
6019;SDS011;3038;51.122;6.840;2022-07-06T17:49:24;2.43;;;2.23;;
6019;SDS011;3038;51.122;6.840;2022-07-06T17:51:50;2.73;;;2.20;;
6019;SDS011;3038;51.122;6.840;2022-07-06T17:54:15;4.50;;;2.20;;
6019;SDS011;3038;51.122;6.840;2022-07-06T17:56:41;2.00;;;1.80;;
6019;SDS011;3038;51.122;6.840;2022-07-06T17:59:06;3.50;;;2.17;;
6019;SDS011;3038;51.122;6.840;2022-07-06T18:01:32;2.10;;;1.80;;
6019;SDS011;3038;51.122;6.840;2022-07-06T18:03:58;2.10;;;1.80;;
6019;SDS011;3038;51.122;6.840;2022-07-06T18:06:23;3.30;;;2.20;;
6019;SDS011;3038;51.122;6.840;2022-07-06T18:08:48;4.30;;;1.90;;
6019;SDS011;3038;51.122;6.840;2022-07-06T18:11:14;3.40;;;2.03;;
6019;SDS011;3038;51.122;6.840;2022-07-06T18:13:39;3.40;;;2.20;;
6019;SDS011;3038;51.122;6.840;2022-07-06T18:16:05;8.00;;;1.60;;
6019;SDS011;3038;51.122;6.840;2022-07-06T18:18:32;1.80;;;1.40;;
6019;SDS011;3038;51.122;6.840;2022-07-06T18:20:57;2.20;;;1.90;;
6019;SDS011;3038;51.122;6.840;2022-07-06T18:23:24;3.03;;;2.00;;
6019;SDS011;3038;51.122;6.840;2022-07-06T18:25:50;1.93;;;1.73;;
6019;SDS011;3038;51.122;6.840;2022-07-06T18:28:17;2.20;;;1.70;;
6019;SDS011;3038;51.122;6.840;2022-07-06T18:30:43;2.03;;;1.63;;
6019;SDS011;3038;51.122;6.840;2022-07-06T18:33:09;3.97;;;1.90;;
6019;SDS011;3038;51.122;6.840;2022-07-06T18:35:35;3.03;;;1.80;;
6019;SDS011;3038;51.122;6.840;2022-07-06T18:38:00;2.50;;;1.90;;
6019;SDS011;3038;51.122;6.840;2022-07-06T18:40:26;2.77;;;1.90;;
6019;SDS011;3038;51.122;6.840;2022-07-06T18:42:52;3.50;;;2.20;;
6019;SDS011;3038;51.122;6.840;2022-07-06T18:45:17;3.57;;;2.60;;
6019;SDS011;3038;51.122;6.840;2022-07-06T18:47:43;3.33;;;1.87;;